Terminal Aerodrome Forecast
Issued by NWS Memphis, TN

Home | Current Version | Previous Version | Text Only | Print | Product List | Glossary On
Versions: 1 2 3 4 5 6 7 8 9 10 11 12 13 14 15 16 17 18
000
FTUS44 KMEG 240108 AAA
TAFMKL
TAF AMD
KMKL 240108Z 2401/2424 22010G20KT 3SM RA BR SCT008 OVC012
     FM240200 20010G20KT P6SM SCT008 OVC015
     FM240600 21019G28KT P6SM BKN015
     FM241500 26017G25KT P6SM BKN020
     FM241800 26014G25KT P6SM SCT250=

USA.gov is the U.S. government's official web portal to all federal, state and local government web resources and services.